sensor_id;sensor_type;location;lat;lon;timestamp;P1;durP1;ratioP1;P2;durP2;ratioP2
31990;SDS011;18508;49.386;8.370;2024-03-08T00:01:35;34.78;;;16.90;;
31990;SDS011;18508;49.386;8.370;2024-03-08T00:04:04;33.58;;;18.02;;
31990;SDS011;18508;49.386;8.370;2024-03-08T00:06:33;31.77;;;17.00;;
31990;SDS011;18508;49.386;8.370;2024-03-08T00:09:01;35.90;;;18.27;;
31990;SDS011;18508;49.386;8.370;2024-03-08T00:11:32;36.28;;;17.75;;
31990;SDS011;18508;49.386;8.370;2024-03-08T00:14:01;33.17;;;16.98;;
31990;SDS011;18508;49.386;8.370;2024-03-08T00:16:34;33.83;;;17.27;;
31990;SDS011;18508;49.386;8.370;2024-03-08T00:19:03;36.10;;;17.80;;
31990;SDS011;18508;49.386;8.370;2024-03-08T00:21:33;39.10;;;18.60;;
31990;SDS011;18508;49.386;8.370;2024-03-08T00:24:04;38.03;;;18.13;;
31990;SDS011;18508;49.386;8.370;2024-03-08T00:26:35;31.35;;;16.90;;
31990;SDS011;18508;49.386;8.370;2024-03-08T00:29:03;35.03;;;17.85;;
31990;SDS011;18508;49.386;8.370;2024-03-08T00:31:36;38.45;;;17.48;;
31990;SDS011;18508;49.386;8.370;2024-03-08T00:34:05;33.20;;;17.58;;
31990;SDS011;18508;49.386;8.370;2024-03-08T00:36:41;33.72;;;17.25;;
31990;SDS011;18508;49.386;8.370;2024-03-08T00:39:11;32.70;;;17.17;;
31990;SDS011;18508;49.386;8.370;2024-03-08T00:41:44;44.35;;;17.55;;
31990;SDS011;18508;49.386;8.370;2024-03-08T00:44:14;35.40;;;17.80;;
31990;SDS011;18508;49.386;8.370;2024-03-08T00:46:43;35.42;;;16.65;;
31990;SDS011;18508;49.386;8.370;2024-03-08T00:49:17;37.28;;;18.92;;
31990;SDS011;18508;49.386;8.370;2024-03-08T00:51:48;37.58;;;17.65;;
31990;SDS011;18508;49.386;8.370;2024-03-08T00:54:20;37.60;;;17.02;;
31990;SDS011;18508;49.386;8.370;2024-03-08T00:57:00;33.45;;;17.10;;
31990;SDS011;18508;49.386;8.370;2024-03-08T01:02:06;37.05;;;16.48;;
31990;SDS011;18508;49.386;8.370;2024-03-08T01:04:37;34.33;;;17.10;;
31990;SDS011;18508;49.386;8.370;2024-03-08T01:07:07;35.88;;;17.60;;
31990;SDS011;18508;49.386;8.370;2024-03-08T01:09:37;35.25;;;18.08;;
31990;SDS011;18508;49.386;8.370;2024-03-08T01:12:10;40.13;;;18.15;;
31990;SDS011;18508;49.386;8.370;2024-03-08T01:14:50;36.38;;;16.92;;
31990;SDS011;18508;49.386;8.370;2024-03-08T01:19:58;33.42;;;16.63;;
31990;SDS011;18508;49.386;8.370;2024-03-08T01:22:30;40.13;;;17.53;;
31990;SDS011;18508;49.386;8.370;2024-03-08T01:25:02;34.33;;;17.27;;
31990;SDS011;18508;49.386;8.370;2024-03-08T01:27:33;34.35;;;17.52;;
31990;SDS011;18508;49.386;8.370;2024-03-08T01:30:09;32.83;;;17.48;;
31990;SDS011;18508;49.386;8.370;2024-03-08T01:32:39;36.47;;;17.90;;
31990;SDS011;18508;49.386;8.370;2024-03-08T01:35:11;38.25;;;18.05;;
31990;SDS011;18508;49.386;8.370;2024-03-08T01:37:44;34.72;;;16.95;;
31990;SDS011;18508;49.386;8.370;2024-03-08T01:40:18;36.38;;;15.73;;
31990;SDS011;18508;49.386;8.370;2024-03-08T01:42:50;32.15;;;16.60;;
31990;SDS011;18508;49.386;8.370;2024-03-08T01:45:23;38.15;;;18.05;;
31990;SDS011;18508;49.386;8.370;2024-03-08T01:47:54;35.50;;;18.58;;
31990;SDS011;18508;49.386;8.370;2024-03-08T01:50:24;37.05;;;18.35;;
31990;SDS011;18508;49.386;8.370;2024-03-08T01:52:58;34.08;;;16.50;;
31990;SDS011;18508;49.386;8.370;2024-03-08T01:55:32;34.47;;;18.50;;
31990;SDS011;18508;49.386;8.370;2024-03-08T01:58:06;36.80;;;17.33;;
31990;SDS011;18508;49.386;8.370;2024-03-08T02:00:38;35.28;;;17.13;;
31990;SDS011;18508;49.386;8.370;2024-03-08T02:03:13;35.75;;;18.05;;
31990;SDS011;18508;49.386;8.370;2024-03-08T02:05:45;37.38;;;17.48;;
31990;SDS011;18508;49.386;8.370;2024-03-08T02:08:16;31.98;;;16.90;;
31990;SDS011;18508;49.386;8.370;2024-03-08T02:10:46;39.33;;;18.35;;
31990;SDS011;18508;49.386;8.370;2024-03-08T02:13:17;38.05;;;18.02;;
31990;SDS011;18508;49.386;8.370;2024-03-08T02:15:50;35.08;;;18.80;;
31990;SDS011;18508;49.386;8.370;2024-03-08T02:18:23;38.67;;;18.38;;
31990;SDS011;18508;49.386;8.370;2024-03-08T02:20:59;44.60;;;18.40;;
31990;SDS011;18508;49.386;8.370;2024-03-08T02:23:32;36.67;;;18.23;;
31990;SDS011;18508;49.386;8.370;2024-03-08T02:26:07;40.20;;;18.90;;
31990;SDS011;18508;49.386;8.370;2024-03-08T02:28:38;33.35;;;16.25;;
31990;SDS011;18508;49.386;8.370;2024-03-08T02:31:09;36.05;;;18.00;;
31990;SDS011;18508;49.386;8.370;2024-03-08T02:33:39;38.28;;;17.45;;
31990;SDS011;18508;49.386;8.370;2024-03-08T02:36:13;38.08;;;17.58;;
31990;SDS011;18508;49.386;8.370;2024-03-08T02:38:43;38.40;;;17.45;;
31990;SDS011;18508;49.386;8.370;2024-03-08T02:41:12;35.45;;;16.65;;
31990;SDS011;18508;49.386;8.370;2024-03-08T02:43:45;41.00;;;18.05;;
31990;SDS011;18508;49.386;8.370;2024-03-08T02:46:14;40.20;;;17.55;;
31990;SDS011;18508;49.386;8.370;2024-03-08T02:48:47;39.03;;;18.92;;
31990;SDS011;18508;49.386;8.370;2024-03-08T02:51:20;37.80;;;18.25;;
31990;SDS011;18508;49.386;8.370;2024-03-08T02:53:50;39.17;;;18.48;;
31990;SDS011;18508;49.386;8.370;2024-03-08T02:56:22;36.58;;;17.08;;
31990;SDS011;18508;49.386;8.370;2024-03-08T02:58:51;39.00;;;18.95;;
31990;SDS011;18508;49.386;8.370;2024-03-08T03:01:27;43.50;;;18.65;;
31990;SDS011;18508;49.386;8.370;2024-03-08T03:03:56;43.60;;;18.55;;
31990;SDS011;18508;49.386;8.370;2024-03-08T03:06:27;38.92;;;18.98;;
31990;SDS011;18508;49.386;8.370;2024-03-08T03:08:58;36.35;;;18.35;;
31990;SDS011;18508;49.386;8.370;2024-03-08T03:11:29;45.97;;;18.23;;
31990;SDS011;18508;49.386;8.370;2024-03-08T03:14:01;35.45;;;17.90;;
31990;SDS011;18508;49.386;8.370;2024-03-08T03:16:29;40.75;;;18.17;;
31990;SDS011;18508;49.386;8.370;2024-03-08T03:18:58;40.40;;;19.65;;
31990;SDS011;18508;49.386;8.370;2024-03-08T03:21:31;36.73;;;17.77;;
31990;SDS011;18508;49.386;8.370;2024-03-08T03:24:02;37.25;;;18.85;;
31990;SDS011;18508;49.386;8.370;2024-03-08T03:26:37;37.65;;;17.35;;
31990;SDS011;18508;49.386;8.370;2024-03-08T03:29:10;37.38;;;17.15;;
31990;SDS011;18508;49.386;8.370;2024-03-08T03:31:45;43.55;;;18.08;;
31990;SDS011;18508;49.386;8.370;2024-03-08T03:34:16;40.03;;;17.63;;
31990;SDS011;18508;49.386;8.370;2024-03-08T03:36:47;40.13;;;17.23;;
31990;SDS011;18508;49.386;8.370;2024-03-08T03:39:19;36.33;;;17.75;;
31990;SDS011;18508;49.386;8.370;2024-03-08T03:41:56;35.92;;;18.08;;
31990;SDS011;18508;49.386;8.370;2024-03-08T03:44:27;39.67;;;18.38;;
31990;SDS011;18508;49.386;8.370;2024-03-08T03:46:57;37.95;;;18.55;;
31990;SDS011;18508;49.386;8.370;2024-03-08T03:49:29;41.05;;;18.33;;
31990;SDS011;18508;49.386;8.370;2024-03-08T03:51:59;36.25;;;17.30;;
31990;SDS011;18508;49.386;8.370;2024-03-08T03:54:29;37.65;;;18.13;;
31990;SDS011;18508;49.386;8.370;2024-03-08T03:56:59;38.58;;;17.20;;
31990;SDS011;18508;49.386;8.370;2024-03-08T03:59:31;35.00;;;17.55;;
31990;SDS011;18508;49.386;8.370;2024-03-08T04:02:00;39.67;;;17.65;;
31990;SDS011;18508;49.386;8.370;2024-03-08T04:04:34;39.85;;;18.13;;
31990;SDS011;18508;49.386;8.370;2024-03-08T04:07:05;38.55;;;18.02;;
31990;SDS011;18508;49.386;8.370;2024-03-08T04:09:39;36.75;;;18.30;;
31990;SDS011;18508;49.386;8.370;2024-03-08T04:12:11;37.38;;;17.50;;
31990;SDS011;18508;49.386;8.370;2024-03-08T04:14:42;39.17;;;17.45;;
31990;SDS011;18508;49.386;8.370;2024-03-08T04:17:11;34.25;;;17.60;;
31990;SDS011;18508;49.386;8.370;2024-03-08T04:19:43;38.58;;;18.55;;
31990;SDS011;18508;49.386;8.370;2024-03-08T04:22:16;42.13;;;18.13;;
31990;SDS011;18508;49.386;8.370;2024-03-08T04:24:46;40.90;;;19.08;;
31990;SDS011;18508;49.386;8.370;2024-03-08T04:27:15;39.58;;;19.55;;
31990;SDS011;18508;49.386;8.370;2024-03-08T04:29:47;38.95;;;19.40;;
31990;SDS011;18508;49.386;8.370;2024-03-08T04:32:22;41.92;;;19.65;;
31990;SDS011;18508;49.386;8.370;2024-03-08T04:34:53;38.17;;;18.27;;
31990;SDS011;18508;49.386;8.370;2024-03-08T04:37:26;39.35;;;18.73;;
31990;SDS011;18508;49.386;8.370;2024-03-08T04:39:56;38.50;;;18.15;;
31990;SDS011;18508;49.386;8.370;2024-03-08T04:42:25;38.67;;;18.15;;
31990;SDS011;18508;49.386;8.370;2024-03-08T04:44:56;40.42;;;19.30;;
31990;SDS011;18508;49.386;8.370;2024-03-08T04:47:26;40.50;;;18.85;;
31990;SDS011;18508;49.386;8.370;2024-03-08T04:49:58;42.70;;;20.25;;
31990;SDS011;18508;49.386;8.370;2024-03-08T04:52:32;36.25;;;18.73;;
31990;SDS011;18508;49.386;8.370;2024-03-08T04:55:02;40.70;;;20.33;;
31990;SDS011;18508;49.386;8.370;2024-03-08T04:57:38;40.63;;;19.00;;
31990;SDS011;18508;49.386;8.370;2024-03-08T05:00:09;43.72;;;21.02;;
31990;SDS011;18508;49.386;8.370;2024-03-08T05:02:39;41.95;;;19.00;;
31990;SDS011;18508;49.386;8.370;2024-03-08T05:05:08;40.85;;;18.98;;
31990;SDS011;18508;49.386;8.370;2024-03-08T05:07:41;41.63;;;20.13;;
31990;SDS011;18508;49.386;8.370;2024-03-08T05:10:15;40.97;;;18.48;;
31990;SDS011;18508;49.386;8.370;2024-03-08T05:15:14;41.55;;;19.05;;
31990;SDS011;18508;49.386;8.370;2024-03-08T05:17:43;40.88;;;18.83;;
31990;SDS011;18508;49.386;8.370;2024-03-08T05:20:12;38.85;;;19.08;;
31990;SDS011;18508;49.386;8.370;2024-03-08T05:22:42;42.22;;;19.55;;
31990;SDS011;18508;49.386;8.370;2024-03-08T05:25:13;39.83;;;18.50;;
31990;SDS011;18508;49.386;8.370;2024-03-08T05:27:41;45.53;;;19.67;;
31990;SDS011;18508;49.386;8.370;2024-03-08T05:30:11;41.10;;;18.80;;
31990;SDS011;18508;49.386;8.370;2024-03-08T05:32:42;41.05;;;19.17;;
31990;SDS011;18508;49.386;8.370;2024-03-08T05:35:14;45.00;;;19.73;;
31990;SDS011;18508;49.386;8.370;2024-03-08T05:37:48;42.25;;;19.42;;
31990;SDS011;18508;49.386;8.370;2024-03-08T05:40:27;41.72;;;19.85;;
31990;SDS011;18508;49.386;8.370;2024-03-08T05:42:58;42.42;;;19.50;;
31990;SDS011;18508;49.386;8.370;2024-03-08T05:45:28;44.65;;;19.83;;
31990;SDS011;18508;49.386;8.370;2024-03-08T05:47:57;40.80;;;20.52;;
31990;SDS011;18508;49.386;8.370;2024-03-08T05:50:26;40.60;;;19.55;;
31990;SDS011;18508;49.386;8.370;2024-03-08T05:52:56;45.20;;;19.73;;
31990;SDS011;18508;49.386;8.370;2024-03-08T05:55:25;42.05;;;19.08;;
31990;SDS011;18508;49.386;8.370;2024-03-08T05:57:57;42.33;;;20.90;;
31990;SDS011;18508;49.386;8.370;2024-03-08T06:00:30;48.03;;;20.73;;
31990;SDS011;18508;49.386;8.370;2024-03-08T06:03:03;45.47;;;19.75;;
31990;SDS011;18508;49.386;8.370;2024-03-08T06:05:32;43.60;;;20.17;;
31990;SDS011;18508;49.386;8.370;2024-03-08T06:08:07;39.45;;;18.10;;
31990;SDS011;18508;49.386;8.370;2024-03-08T06:10:42;47.85;;;21.08;;
31990;SDS011;18508;49.386;8.370;2024-03-08T06:13:13;44.42;;;20.33;;
31990;SDS011;18508;49.386;8.370;2024-03-08T06:15:43;44.85;;;20.45;;
31990;SDS011;18508;49.386;8.370;2024-03-08T06:18:15;44.45;;;20.17;;
31990;SDS011;18508;49.386;8.370;2024-03-08T06:20:50;40.95;;;21.25;;
31990;SDS011;18508;49.386;8.370;2024-03-08T06:23:23;43.03;;;20.33;;
31990;SDS011;18508;49.386;8.370;2024-03-08T06:25:54;45.22;;;21.45;;
31990;SDS011;18508;49.386;8.370;2024-03-08T06:28:25;41.42;;;20.05;;
31990;SDS011;18508;49.386;8.370;2024-03-08T06:30:59;40.85;;;19.85;;
31990;SDS011;18508;49.386;8.370;2024-03-08T06:33:30;44.55;;;20.52;;
31990;SDS011;18508;49.386;8.370;2024-03-08T06:36:09;42.47;;;21.50;;
31990;SDS011;18508;49.386;8.370;2024-03-08T06:38:43;41.72;;;19.70;;
31990;SDS011;18508;49.386;8.370;2024-03-08T06:41:13;47.42;;;20.95;;
31990;SDS011;18508;49.386;8.370;2024-03-08T06:43:43;43.17;;;20.63;;
31990;SDS011;18508;49.386;8.370;2024-03-08T06:46:15;45.13;;;21.77;;
31990;SDS011;18508;49.386;8.370;2024-03-08T06:48:47;46.60;;;21.08;;
31990;SDS011;18508;49.386;8.370;2024-03-08T06:51:22;40.90;;;20.60;;
31990;SDS011;18508;49.386;8.370;2024-03-08T06:53:55;44.35;;;19.67;;
31990;SDS011;18508;49.386;8.370;2024-03-08T06:56:24;41.85;;;19.35;;
31990;SDS011;18508;49.386;8.370;2024-03-08T06:58:57;45.80;;;20.85;;
31990;SDS011;18508;49.386;8.370;2024-03-08T07:01:26;45.33;;;20.52;;
31990;SDS011;18508;49.386;8.370;2024-03-08T07:03:54;39.35;;;19.10;;
31990;SDS011;18508;49.386;8.370;2024-03-08T07:06:24;44.60;;;19.27;;
31990;SDS011;18508;49.386;8.370;2024-03-08T07:08:56;44.65;;;20.60;;
31990;SDS011;18508;49.386;8.370;2024-03-08T07:11:26;42.63;;;19.65;;
31990;SDS011;18508;49.386;8.370;2024-03-08T07:13:59;44.60;;;21.15;;
31990;SDS011;18508;49.386;8.370;2024-03-08T07:16:35;40.00;;;20.77;;
31990;SDS011;18508;49.386;8.370;2024-03-08T07:19:05;42.95;;;20.50;;
31990;SDS011;18508;49.386;8.370;2024-03-08T07:21:36;41.03;;;19.45;;
31990;SDS011;18508;49.386;8.370;2024-03-08T07:24:07;37.35;;;17.90;;
31990;SDS011;18508;49.386;8.370;2024-03-08T07:26:54;43.67;;;19.88;;
31990;SDS011;18508;49.386;8.370;2024-03-08T07:29:23;39.25;;;20.50;;
31990;SDS011;18508;49.386;8.370;2024-03-08T07:31:52;44.00;;;19.30;;
31990;SDS011;18508;49.386;8.370;2024-03-08T07:34:34;45.28;;;21.83;;
31990;SDS011;18508;49.386;8.370;2024-03-08T07:37:12;41.97;;;20.60;;
31990;SDS011;18508;49.386;8.370;2024-03-08T07:39:45;40.33;;;19.75;;
31990;SDS011;18508;49.386;8.370;2024-03-08T07:42:16;42.22;;;20.35;;
31990;SDS011;18508;49.386;8.370;2024-03-08T07:44:44;40.97;;;20.10;;
31990;SDS011;18508;49.386;8.370;2024-03-08T07:47:17;38.22;;;19.08;;
31990;SDS011;18508;49.386;8.370;2024-03-08T07:49:50;36.47;;;19.02;;
31990;SDS011;18508;49.386;8.370;2024-03-08T07:52:25;41.13;;;19.17;;
31990;SDS011;18508;49.386;8.370;2024-03-08T07:54:56;38.57;;;18.97;;
31990;SDS011;18508;49.386;8.370;2024-03-08T07:57:26;41.45;;;19.60;;
31990;SDS011;18508;49.386;8.370;2024-03-08T08:00:00;37.30;;;18.42;;
31990;SDS011;18508;49.386;8.370;2024-03-08T08:02:34;37.90;;;19.83;;
31990;SDS011;18508;49.386;8.370;2024-03-08T08:05:09;39.45;;;18.92;;
31990;SDS011;18508;49.386;8.370;2024-03-08T08:07:37;39.35;;;17.98;;
31990;SDS011;18508;49.386;8.370;2024-03-08T08:10:12;37.78;;;19.02;;
31990;SDS011;18508;49.386;8.370;2024-03-08T08:12:45;36.85;;;18.60;;
31990;SDS011;18508;49.386;8.370;2024-03-08T08:15:17;39.20;;;18.67;;
31990;SDS011;18508;49.386;8.370;2024-03-08T08:17:48;37.50;;;18.33;;
31990;SDS011;18508;49.386;8.370;2024-03-08T08:20:17;36.53;;;18.63;;
31990;SDS011;18508;49.386;8.370;2024-03-08T08:22:51;34.47;;;17.48;;
31990;SDS011;18508;49.386;8.370;2024-03-08T08:25:23;38.33;;;18.27;;
31990;SDS011;18508;49.386;8.370;2024-03-08T08:28:01;38.15;;;19.42;;
31990;SDS011;18508;49.386;8.370;2024-03-08T08:30:31;35.65;;;18.08;;
31990;SDS011;18508;49.386;8.370;2024-03-08T08:33:00;34.88;;;18.20;;
31990;SDS011;18508;49.386;8.370;2024-03-08T08:35:32;33.50;;;17.58;;
31990;SDS011;18508;49.386;8.370;2024-03-08T08:38:01;37.13;;;18.77;;
31990;SDS011;18508;49.386;8.370;2024-03-08T08:40:32;39.00;;;19.05;;
31990;SDS011;18508;49.386;8.370;2024-03-08T08:43:04;38.08;;;18.33;;
31990;SDS011;18508;49.386;8.370;2024-03-08T08:45:36;36.25;;;19.00;;
31990;SDS011;18508;49.386;8.370;2024-03-08T08:48:06;36.60;;;19.00;;
31990;SDS011;18508;49.386;8.370;2024-03-08T08:50:38;36.72;;;18.17;;
31990;SDS011;18508;49.386;8.370;2024-03-08T08:53:08;40.17;;;18.60;;
31990;SDS011;18508;49.386;8.370;2024-03-08T08:55:40;34.97;;;18.17;;
31990;SDS011;18508;49.386;8.370;2024-03-08T08:58:27;29.95;;;15.88;;
31990;SDS011;18508;49.386;8.370;2024-03-08T09:01:07;33.10;;;17.80;;
31990;SDS011;18508;49.386;8.370;2024-03-08T09:03:45;37.95;;;17.90;;
31990;SDS011;18508;49.386;8.370;2024-03-08T09:06:14;35.15;;;17.75;;
31990;SDS011;18508;49.386;8.370;2024-03-08T09:08:43;31.52;;;17.27;;
31990;SDS011;18508;49.386;8.370;2024-03-08T09:11:15;35.95;;;17.15;;
31990;SDS011;18508;49.386;8.370;2024-03-08T09:13:44;38.65;;;19.25;;
31990;SDS011;18508;49.386;8.370;2024-03-08T09:16:14;37.33;;;19.40;;
31990;SDS011;18508;49.386;8.370;2024-03-08T09:18:51;34.50;;;16.90;;
31990;SDS011;18508;49.386;8.370;2024-03-08T09:21:24;32.25;;;18.27;;
31990;SDS011;18508;49.386;8.370;2024-03-08T09:23:53;31.85;;;16.77;;
31990;SDS011;18508;49.386;8.370;2024-03-08T09:26:23;33.60;;;18.20;;
31990;SDS011;18508;49.386;8.370;2024-03-08T09:28:55;30.63;;;17.25;;
31990;SDS011;18508;49.386;8.370;2024-03-08T09:31:24;30.30;;;16.98;;
31990;SDS011;18508;49.386;8.370;2024-03-08T09:33:52;28.05;;;17.15;;
31990;SDS011;18508;49.386;8.370;2024-03-08T09:36:22;28.73;;;16.27;;
31990;SDS011;18508;49.386;8.370;2024-03-08T09:38:51;31.30;;;16.75;;
31990;SDS011;18508;49.386;8.370;2024-03-08T09:41:19;33.63;;;17.75;;
31990;SDS011;18508;49.386;8.370;2024-03-08T09:43:50;31.20;;;17.85;;
31990;SDS011;18508;49.386;8.370;2024-03-08T09:46:19;31.98;;;16.35;;
31990;SDS011;18508;49.386;8.370;2024-03-08T09:48:51;31.48;;;15.85;;
31990;SDS011;18508;49.386;8.370;2024-03-08T09:51:20;29.13;;;16.52;;
31990;SDS011;18508;49.386;8.370;2024-03-08T09:53:54;29.83;;;15.95;;
31990;SDS011;18508;49.386;8.370;2024-03-08T09:56:42;32.47;;;17.85;;
31990;SDS011;18508;49.386;8.370;2024-03-08T09:59:14;30.63;;;17.58;;
31990;SDS011;18508;49.386;8.370;2024-03-08T10:02:08;27.73;;;16.35;;
31990;SDS011;18508;49.386;8.370;2024-03-08T10:04:42;29.48;;;16.63;;
31990;SDS011;18508;49.386;8.370;2024-03-08T10:07:13;29.83;;;16.42;;
31990;SDS011;18508;49.386;8.370;2024-03-08T10:09:42;32.25;;;17.58;;
31990;SDS011;18508;49.386;8.370;2024-03-08T10:12:16;31.10;;;16.05;;
31990;SDS011;18508;49.386;8.370;2024-03-08T10:14:47;31.33;;;16.58;;
31990;SDS011;18508;49.386;8.370;2024-03-08T10:17:15;31.88;;;16.58;;
31990;SDS011;18508;49.386;8.370;2024-03-08T10:19:50;30.92;;;16.77;;
31990;SDS011;18508;49.386;8.370;2024-03-08T10:22:19;31.85;;;17.13;;
31990;SDS011;18508;49.386;8.370;2024-03-08T10:24:48;29.63;;;16.60;;
31990;SDS011;18508;49.386;8.370;2024-03-08T10:27:16;30.60;;;16.48;;
31990;SDS011;18508;49.386;8.370;2024-03-08T10:29:47;28.67;;;16.88;;
31990;SDS011;18508;49.386;8.370;2024-03-08T10:32:18;30.25;;;16.27;;
31990;SDS011;18508;49.386;8.370;2024-03-08T10:34:47;30.80;;;16.25;;
31990;SDS011;18508;49.386;8.370;2024-03-08T10:37:20;30.20;;;16.77;;
31990;SDS011;18508;49.386;8.370;2024-03-08T10:39:56;27.65;;;16.13;;
31990;SDS011;18508;49.386;8.370;2024-03-08T10:42:38;31.50;;;17.50;;
31990;SDS011;18508;49.386;8.370;2024-03-08T10:45:12;30.50;;;17.13;;
31990;SDS011;18508;49.386;8.370;2024-03-08T10:47:49;29.33;;;16.73;;
31990;SDS011;18508;49.386;8.370;2024-03-08T10:50:32;30.17;;;17.00;;
31990;SDS011;18508;49.386;8.370;2024-03-08T10:53:02;30.17;;;16.67;;
31990;SDS011;18508;49.386;8.370;2024-03-08T10:55:33;29.20;;;16.67;;
31990;SDS011;18508;49.386;8.370;2024-03-08T10:58:04;28.17;;;15.93;;
31990;SDS011;18508;49.386;8.370;2024-03-08T11:00:35;28.70;;;16.42;;
31990;SDS011;18508;49.386;8.370;2024-03-08T11:03:04;27.58;;;15.75;;
31990;SDS011;18508;49.386;8.370;2024-03-08T11:05:36;30.80;;;17.17;;
31990;SDS011;18508;49.386;8.370;2024-03-08T11:08:17;30.25;;;16.45;;
31990;SDS011;18508;49.386;8.370;2024-03-08T11:10:49;26.92;;;16.23;;
31990;SDS011;18508;49.386;8.370;2024-03-08T11:13:32;32.40;;;16.70;;
31990;SDS011;18508;49.386;8.370;2024-03-08T11:16:08;28.67;;;16.48;;
31990;SDS011;18508;49.386;8.370;2024-03-08T11:19:23;30.60;;;15.95;;
31990;SDS011;18508;49.386;8.370;2024-03-08T11:22:02;28.52;;;16.58;;
31990;SDS011;18508;49.386;8.370;2024-03-08T11:24:38;28.33;;;15.52;;
31990;SDS011;18508;49.386;8.370;2024-03-08T11:27:12;26.52;;;15.27;;
31990;SDS011;18508;49.386;8.370;2024-03-08T11:29:41;25.23;;;15.07;;
31990;SDS011;18508;49.386;8.370;2024-03-08T11:32:20;27.17;;;16.02;;
31990;SDS011;18508;49.386;8.370;2024-03-08T11:34:50;25.73;;;16.42;;
31990;SDS011;18508;49.386;8.370;2024-03-08T11:37:24;26.88;;;15.05;;
31990;SDS011;18508;49.386;8.370;2024-03-08T11:39:57;29.95;;;15.98;;
31990;SDS011;18508;49.386;8.370;2024-03-08T11:42:27;29.70;;;15.48;;
31990;SDS011;18508;49.386;8.370;2024-03-08T11:45:00;24.35;;;13.85;;
31990;SDS011;18508;49.386;8.370;2024-03-08T11:47:39;29.15;;;16.73;;
31990;SDS011;18508;49.386;8.370;2024-03-08T11:50:13;25.42;;;14.75;;
31990;SDS011;18508;49.386;8.370;2024-03-08T11:52:43;33.00;;;15.77;;
31990;SDS011;18508;49.386;8.370;2024-03-08T11:55:12;26.85;;;15.80;;
31990;SDS011;18508;49.386;8.370;2024-03-08T11:57:40;26.13;;;14.77;;
31990;SDS011;18508;49.386;8.370;2024-03-08T12:00:14;26.15;;;15.48;;
31990;SDS011;18508;49.386;8.370;2024-03-08T12:03:03;28.27;;;15.77;;
31990;SDS011;18508;49.386;8.370;2024-03-08T12:05:32;26.45;;;16.00;;
31990;SDS011;18508;49.386;8.370;2024-03-08T12:08:01;25.95;;;16.08;;
31990;SDS011;18508;49.386;8.370;2024-03-08T12:10:34;25.52;;;14.40;;
31990;SDS011;18508;49.386;8.370;2024-03-08T12:13:06;26.35;;;14.35;;
31990;SDS011;18508;49.386;8.370;2024-03-08T12:15:39;31.00;;;16.40;;
31990;SDS011;18508;49.386;8.370;2024-03-08T12:18:12;25.70;;;14.85;;
31990;SDS011;18508;49.386;8.370;2024-03-08T12:20:42;25.13;;;14.82;;
31990;SDS011;18508;49.386;8.370;2024-03-08T12:23:16;29.52;;;16.20;;
31990;SDS011;18508;49.386;8.370;2024-03-08T12:25:47;25.75;;;14.35;;
31990;SDS011;18508;49.386;8.370;2024-03-08T12:28:15;25.25;;;15.13;;
31990;SDS011;18508;49.386;8.370;2024-03-08T12:30:46;28.17;;;16.00;;
31990;SDS011;18508;49.386;8.370;2024-03-08T12:33:17;27.40;;;15.23;;
31990;SDS011;18508;49.386;8.370;2024-03-08T12:35:54;29.10;;;15.77;;
31990;SDS011;18508;49.386;8.370;2024-03-08T12:38:27;27.83;;;15.98;;
31990;SDS011;18508;49.386;8.370;2024-03-08T12:40:58;26.45;;;15.50;;
31990;SDS011;18508;49.386;8.370;2024-03-08T12:43:28;30.52;;;16.42;;
31990;SDS011;18508;49.386;8.370;2024-03-08T12:45:58;29.30;;;15.68;;
31990;SDS011;18508;49.386;8.370;2024-03-08T12:51:14;27.73;;;15.45;;
31990;SDS011;18508;49.386;8.370;2024-03-08T12:53:42;28.40;;;16.13;;
31990;SDS011;18508;49.386;8.370;2024-03-08T12:56:12;26.08;;;14.35;;
31990;SDS011;18508;49.386;8.370;2024-03-08T12:58:41;26.38;;;15.48;;
31990;SDS011;18508;49.386;8.370;2024-03-08T13:01:09;29.35;;;16.88;;
31990;SDS011;18508;49.386;8.370;2024-03-08T13:03:38;29.38;;;15.93;;
31990;SDS011;18508;49.386;8.370;2024-03-08T13:06:09;31.80;;;17.17;;
31990;SDS011;18508;49.386;8.370;2024-03-08T13:08:37;31.42;;;16.45;;
31990;SDS011;18508;49.386;8.370;2024-03-08T13:11:06;31.15;;;17.67;;
31990;SDS011;18508;49.386;8.370;2024-03-08T13:13:38;33.05;;;17.00;;
31990;SDS011;18508;49.386;8.370;2024-03-08T13:16:08;29.00;;;16.60;;
31990;SDS011;18508;49.386;8.370;2024-03-08T13:18:44;32.28;;;18.58;;
31990;SDS011;18508;49.386;8.370;2024-03-08T13:21:23;28.63;;;16.85;;
31990;SDS011;18508;49.386;8.370;2024-03-08T13:24:00;29.25;;;16.48;;
31990;SDS011;18508;49.386;8.370;2024-03-08T13:26:29;27.67;;;15.52;;
31990;SDS011;18508;49.386;8.370;2024-03-08T13:29:00;29.30;;;16.25;;
31990;SDS011;18508;49.386;8.370;2024-03-08T13:31:28;32.30;;;17.50;;
31990;SDS011;18508;49.386;8.370;2024-03-08T13:33:58;28.35;;;17.50;;
31990;SDS011;18508;49.386;8.370;2024-03-08T13:36:28;62.53;;;19.08;;
31990;SDS011;18508;49.386;8.370;2024-03-08T13:39:12;37.15;;;17.27;;
31990;SDS011;18508;49.386;8.370;2024-03-08T13:41:42;31.70;;;16.52;;
31990;SDS011;18508;49.386;8.370;2024-03-08T13:44:11;31.27;;;18.08;;
31990;SDS011;18508;49.386;8.370;2024-03-08T13:46:40;35.47;;;17.75;;
31990;SDS011;18508;49.386;8.370;2024-03-08T13:49:08;32.33;;;17.75;;
31990;SDS011;18508;49.386;8.370;2024-03-08T13:51:41;39.70;;;18.05;;
31990;SDS011;18508;49.386;8.370;2024-03-08T13:54:09;39.55;;;16.75;;
31990;SDS011;18508;49.386;8.370;2024-03-08T13:56:38;27.30;;;16.15;;
31990;SDS011;18508;49.386;8.370;2024-03-08T13:59:06;31.17;;;16.65;;
31990;SDS011;18508;49.386;8.370;2024-03-08T14:01:36;30.58;;;17.13;;
31990;SDS011;18508;49.386;8.370;2024-03-08T14:04:04;27.60;;;16.35;;
31990;SDS011;18508;49.386;8.370;2024-03-08T14:06:34;31.20;;;16.73;;
31990;SDS011;18508;49.386;8.370;2024-03-08T14:09:04;30.65;;;16.27;;
31990;SDS011;18508;49.386;8.370;2024-03-08T14:11:34;30.45;;;16.52;;
31990;SDS011;18508;49.386;8.370;2024-03-08T14:14:02;29.67;;;16.38;;
31990;SDS011;18508;49.386;8.370;2024-03-08T14:16:31;27.42;;;16.73;;
31990;SDS011;18508;49.386;8.370;2024-03-08T14:18:59;30.58;;;17.70;;
31990;SDS011;18508;49.386;8.370;2024-03-08T14:21:32;27.13;;;16.45;;
31990;SDS011;18508;49.386;8.370;2024-03-08T14:24:00;38.95;;;16.80;;
31990;SDS011;18508;49.386;8.370;2024-03-08T14:26:30;26.48;;;16.05;;
31990;SDS011;18508;49.386;8.370;2024-03-08T14:28:59;29.15;;;17.02;;
31990;SDS011;18508;49.386;8.370;2024-03-08T14:31:27;29.23;;;16.33;;
31990;SDS011;18508;49.386;8.370;2024-03-08T14:33:56;29.25;;;16.25;;
31990;SDS011;18508;49.386;8.370;2024-03-08T14:36:25;27.75;;;16.35;;
31990;SDS011;18508;49.386;8.370;2024-03-08T14:42:42;26.92;;;17.00;;
31990;SDS011;18508;49.386;8.370;2024-03-08T14:45:11;26.08;;;16.05;;
31990;SDS011;18508;49.386;8.370;2024-03-08T14:47:40;27.40;;;16.73;;
31990;SDS011;18508;49.386;8.370;2024-03-08T14:50:09;27.98;;;16.35;;
31990;SDS011;18508;49.386;8.370;2024-03-08T14:52:39;27.65;;;15.68;;
31990;SDS011;18508;49.386;8.370;2024-03-08T14:55:08;27.58;;;16.83;;
31990;SDS011;18508;49.386;8.370;2024-03-08T14:57:40;27.67;;;15.82;;
31990;SDS011;18508;49.386;8.370;2024-03-08T15:00:14;25.83;;;16.15;;
31990;SDS011;18508;49.386;8.370;2024-03-08T15:02:53;30.35;;;16.95;;